Flight Track Log - Related Links

Times and Time Zones

All times are in EDT time to prevent confusion due to time zone crossing. See the CTL17 flight status page for this flight to view local times or setup timezone preferences in your user account.

Time Position Orientation Groundspeed Altitude Reporting Facility
EDT Latitude Longitude Course Direction KTS MPH feet Rate Location/Type
Mon 06:52:46 PM 41.5475 -81.7594 311° West 155 178 1,900  Level Cleveland Center
Mon 06:53:47 PM 41.5700 -81.8042 304° West 152 175 2,300 541 Climbing Cleveland Center
Mon 06:54:48 PM 41.5819 -81.8572 287° West 145 167 3,000 545 Climbing Cleveland Center
Mon 06:55:48 PM 41.6000 -81.9106 294° West 163 188 3,400 545 Climbing Cleveland Center
Mon 06:56:49 PM 41.6139 -81.9606 290° West 141 162 4,100 656 Climbing Cleveland Center
Mon 06:57:56 PM 41.6278 -82.0136 289° West 140 161 4,800 756 Climbing Cleveland Center
Mon 06:58:56 PM 41.6439 -82.0586 296° West 130 150 5,700 730 Climbing Cleveland Center
Mon 06:59:51 PM 41.6603 -82.1006 298° West 130 150 6,200 275 Climbing Cleveland Center
Mon 07:00:45 PM 41.6761 -82.1456 295° West 149 171 6,200  Level Cleveland Center
Mon 07:01:52 PM 41.6942 -82.2044 292° West 163 188 6,200 -47 Level Cleveland Center
Mon 07:02:53 PM 41.7164 -82.2578 299° West 157 181 6,100 -50 Descending Cleveland Center
Mon 07:03:53 PM 41.7344 -82.3083 296° West 156 180 6,100 52 Level Cleveland Center
Mon 07:04:48 PM 41.7503 -82.3561 295° West 156 180 6,200 52 Climbing Cleveland Center
Mon 07:05:48 PM 41.7683 -82.4067 296° West 155 178 6,200 -83 Level Cleveland Center
Mon 07:07:12 PM 41.7964 -82.4800 297° West 159 183 6,000 -41 Descending Cleveland Center
Mon 07:08:13 PM 41.8142 -82.5361 293° West 159 183 6,100 49 Climbing Cleveland Center
Mon 07:09:14 PM 41.8319 -82.5953 292° West 157 181 6,100 -49 Level Cleveland Center
Mon 07:10:15 PM 41.8561 -82.6378 307° West 170 196 6,000 -49 Descending Cleveland Center
Mon 07:11:16 PM 41.8994 -82.6644 335° Northwest 169 194 6,000 -197 Level Cleveland Center
Mon 07:12:17 PM 41.9447 -82.6908 337° Northwest 175 201 5,600 -446 Descending Cleveland Center
Mon 07:13:17 PM 41.9964 -82.7206 337° Northwest 193 222 5,100 -313 Descending Cleveland Center
Mon 07:14:12 PM 42.0333 -82.7414 337° Northwest 170 196 5,000  Descending Cleveland Center
Mon 07:15:13 PM 42.0786 -82.7708 334° Northwest 167 192 5,100  Climbing Cleveland Center
Mon 07:16:14 PM 42.1242 -82.7919 341° North 169 194 5,000 -49 Descending Cleveland Center
Mon 07:17:15 PM 42.1675 -82.8131 340° North 165 190 5,000 50 Level Cleveland Center
Mon 07:18:15 PM 42.2089 -82.8369 337° Northwest 166 191 5,100 -50 Climbing Cleveland Center
Mon 07:19:16 PM 42.2564 -82.8556 344° North 167 192 4,900 -197 Descending Cleveland Center
Mon 07:20:17 PM 42.3039 -82.8742 344° North 170 196 4,700 -393 Descending Cleveland Center
Mon 07:21:18 PM 42.3536 -82.8956 342° North 193 222 4,100 -295 Descending Cleveland Center
Mon 07:22:19 PM 42.3969 -82.9167 340° North 167 192 4,100 -49 Level Cleveland Center
Mon 07:23:20 PM 42.4381 -82.9408 337° Northwest 163 188 4,000  Descending Cleveland Center
Mon 07:24:21 PM 42.4769 -82.9817 322° Northwest 157 181 4,100  Climbing Cleveland Center
Mon 07:25:22 PM 42.5114 -83.0225 319° Northwest 162 186 4,000 -49 Descending Cleveland Center
Mon 07:26:23 PM 42.5483 -83.0578 325° Northwest 161 185 4,000 -248 Level Cleveland Center
Mon 07:27:23 PM 42.5764 -83.1067 308° West 175 201 3,500 -496 Descending Cleveland Center
Mon 07:28:24 PM 42.6000 -83.1642 299° West 176 203 3,000 -310 Descending Cleveland Center
Mon 07:29:19 PM 42.6197 -83.2158 297° West 162 186 2,900 -259 Descending Cleveland Center
Mon 07:30:20 PM 42.6392 -83.2731 295° West 165 190 2,500 -393 Descending Cleveland Center
Mon 07:31:21 PM 42.6589 -83.3275 296° West 142 163 2,100 -446 Descending Cleveland Center
Mon 07:32:21 PM 42.6661 -83.3703 283° West 121 139 1,600 -500 Descending Cleveland Center
Mon 07:34:00 PM 42.6500 -83.4167 290° West  Level FlightAware Approximate
Mon 07:41:00 PM 42.6656 -83.4205 290° West  Level Estimated
Mon 07:42:00 PM 42.6656 -83.4205 290° West  Level Estimated

Login

Don't have an account? Register now (free) for customized features, flight alerts, and more!